createdAt,value
2022-12-25T00:00:05.445Z,99.99
2022-12-25T00:01:05.460Z,99.99
2022-12-25T00:02:05.404Z,99.99
2022-12-25T00:03:05.423Z,99.99
2022-12-25T00:04:05.510Z,99.99
2022-12-25T00:05:05.395Z,99.99
2022-12-25T00:06:05.359Z,99.99
2022-12-25T00:07:05.398Z,99.99
2022-12-25T00:08:05.347Z,99.99
2022-12-25T00:09:05.378Z,99.99
2022-12-25T00:10:05.357Z,99.99
2022-12-25T00:11:05.337Z,99.99
2022-12-25T00:12:05.344Z,99.99
2022-12-25T00:13:05.327Z,99.99
2022-12-25T00:14:05.305Z,99.99
2022-12-25T00:15:05.361Z,99.99
2022-12-25T00:16:05.383Z,99.99
2022-12-25T00:17:05.299Z,99.99
2022-12-25T00:18:05.284Z,99.99
2022-12-25T00:19:05.296Z,99.99
2022-12-25T00:20:05.332Z,99.99
2022-12-25T00:21:05.348Z,99.99
2022-12-25T00:22:05.267Z,99.99
2022-12-25T00:23:05.264Z,99.99
2022-12-25T00:24:05.302Z,99.99
2022-12-25T00:25:05.393Z,99.99
2022-12-25T00:26:05.276Z,99.99
2022-12-25T00:27:05.411Z,99.99
2022-12-25T00:28:05.249Z,99.99
2022-12-25T00:29:05.232Z,99.99
2022-12-25T00:30:05.223Z,99.99
2022-12-25T00:31:05.327Z,99.99
2022-12-25T00:32:05.254Z,99.99
2022-12-25T00:33:05.203Z,99.99
2022-12-25T00:34:05.209Z,99.99
2022-12-25T00:35:05.208Z,99.99
2022-12-25T00:36:05.235Z,99.99
2022-12-25T00:37:05.228Z,99.99
2022-12-25T00:38:05.182Z,99.99
2022-12-25T00:39:05.260Z,99.99
2022-12-25T00:40:05.169Z,99.99
2022-12-25T00:41:05.200Z,99.99
2022-12-25T00:42:05.224Z,99.99
2022-12-25T00:43:05.173Z,99.99
2022-12-25T00:44:05.205Z,99.99
2022-12-25T00:45:05.175Z,99.99
2022-12-25T00:46:05.214Z,99.99
2022-12-25T00:47:05.243Z,99.99
2022-12-25T00:48:05.183Z,99.99
2022-12-25T00:49:05.139Z,99.99
2022-12-25T00:50:05.150Z,99.99
2022-12-25T00:51:05.138Z,99.99
2022-12-25T00:52:05.132Z,99.99
2022-12-25T00:53:05.159Z,99.99
2022-12-25T00:54:05.152Z,99.99
2022-12-25T00:55:05.115Z,99.99
2022-12-25T00:56:05.122Z,99.99
2022-12-25T00:57:05.111Z,99.99
2022-12-25T00:58:05.209Z,99.99
2022-12-25T00:59:05.104Z,99.99
2022-12-25T01:00:05.100Z,99.99
2022-12-25T01:01:06.137Z,99.99
2022-12-25T01:02:05.217Z,99.99
2022-12-25T01:03:05.109Z,99.99
2022-12-25T01:04:05.065Z,99.99
2022-12-25T01:05:05.076Z,99.99
2022-12-25T01:06:05.083Z,99.99
2022-12-25T01:07:05.059Z,99.99
2022-12-25T01:08:05.091Z,99.99
2022-12-25T01:09:05.080Z,99.99
2022-12-25T01:10:05.083Z,99.99
2022-12-25T01:11:05.041Z,99.99
2022-12-25T01:12:05.040Z,99.99
2022-12-25T01:13:05.054Z,99.99
2022-12-25T01:14:05.048Z,99.99
2022-12-25T01:15:05.047Z,99.99
2022-12-25T01:16:05.091Z,99.99
2022-12-25T01:17:05.027Z,99.99
2022-12-25T01:18:07.871Z,99.99
2022-12-25T01:19:06.031Z,99.99
2022-12-25T01:20:05.022Z,99.99
2022-12-25T01:21:05.023Z,99.99
2022-12-25T01:22:04.983Z,99.99
2022-12-25T01:23:05.018Z,99.99
2022-12-25T01:24:04.982Z,99.99
2022-12-25T01:25:05.138Z,99.99
2022-12-25T01:26:04.974Z,99.99
2022-12-25T01:27:04.975Z,99.99
2022-12-25T01:28:04.971Z,99.99
2022-12-25T01:29:05.027Z,99.99
2022-12-25T01:30:05.028Z,99.99
2022-12-25T01:31:04.956Z,99.99
2022-12-25T01:32:05.021Z,99.99
2022-12-25T01:33:04.962Z,99.99
2022-12-25T01:34:04.956Z,99.99
2022-12-25T01:35:04.962Z,99.99
2022-12-25T01:36:04.965Z,99.99
2022-12-25T01:37:04.947Z,99.99
2022-12-25T01:38:04.959Z,99.99
2022-12-25T01:39:04.943Z,99.99
2022-12-25T01:40:04.935Z,99.99
2022-12-25T01:41:04.941Z,99.99
2022-12-25T01:42:04.895Z,99.99
2022-12-25T01:43:04.946Z,99.99
2022-12-25T01:44:04.910Z,99.99
2022-12-25T01:45:04.901Z,99.99
2022-12-25T01:46:05.007Z,99.99
2022-12-25T01:47:04.911Z,99.99
2022-12-25T01:48:04.926Z,99.99
2022-12-25T01:49:04.870Z,99.99
2022-12-25T01:50:04.885Z,99.99
2022-12-25T01:51:04.863Z,99.99
2022-12-25T01:52:04.919Z,99.99
2022-12-25T01:53:04.898Z,99.99
2022-12-25T01:54:04.887Z,99.99
2022-12-25T01:55:04.907Z,99.99
2022-12-25T01:56:04.857Z,99.99
2022-12-25T01:57:04.861Z,99.99
2022-12-25T01:58:04.841Z,99.99
2022-12-25T01:59:04.944Z,99.99
2022-12-25T02:00:04.855Z,99.99
2022-12-25T02:01:04.839Z,99.99
2022-12-25T02:02:04.942Z,99.99
2022-12-25T02:03:04.856Z,99.99
2022-12-25T02:04:05.139Z,99.99
2022-12-25T02:05:04.885Z,99.99
2022-12-25T02:06:04.799Z,99.99
2022-12-25T02:07:04.807Z,99.99
2022-12-25T02:08:04.811Z,99.99
2022-12-25T02:09:04.793Z,99.99
2022-12-25T02:10:04.801Z,99.99
2022-12-25T02:11:04.771Z,99.99
2022-12-25T02:12:04.753Z,99.99
2022-12-25T02:13:04.829Z,99.99
2022-12-25T02:14:04.767Z,99.99
2022-12-25T02:15:06.127Z,99.99
2022-12-25T02:16:05.831Z,99.99
2022-12-25T02:17:04.842Z,99.99
2022-12-25T02:18:04.750Z,99.99
2022-12-25T02:19:04.761Z,99.99
2022-12-25T02:20:05.609Z,99.99
2022-12-25T02:21:04.731Z,99.99
2022-12-25T02:22:04.732Z,99.99
2022-12-25T02:23:05.630Z,99.99
2022-12-25T02:24:04.796Z,99.99
2022-12-25T02:25:04.825Z,99.99
2022-12-25T02:26:04.721Z,99.99
2022-12-25T02:27:04.709Z,99.99
2022-12-25T02:28:04.729Z,99.99
2022-12-25T02:29:04.701Z,99.99
2022-12-25T02:30:04.766Z,99.99
2022-12-25T02:31:04.691Z,99.99
2022-12-25T02:32:04.756Z,99.99
2022-12-25T02:33:04.690Z,99.99
2022-12-25T02:34:04.683Z,99.99
2022-12-25T02:35:04.671Z,99.99
2022-12-25T02:36:04.878Z,99.99
2022-12-25T02:37:04.696Z,99.99
2022-12-25T02:38:04.660Z,99.99
2022-12-25T02:39:04.674Z,99.99
2022-12-25T02:40:04.678Z,99.99
2022-12-25T02:41:04.691Z,99.99
2022-12-25T02:42:04.679Z,99.99
2022-12-25T02:43:04.654Z,99.99
2022-12-25T02:44:04.634Z,99.99
2022-12-25T02:45:04.613Z,99.99
2022-12-25T02:46:04.639Z,99.99
2022-12-25T02:47:04.617Z,99.99
2022-12-25T02:48:04.629Z,99.99
2022-12-25T02:49:04.613Z,99.99
2022-12-25T02:50:04.590Z,99.99
2022-12-25T02:51:04.612Z,99.99
2022-12-25T02:52:04.593Z,99.99
2022-12-25T02:53:04.615Z,99.96
2022-12-25T02:54:04.594Z,99.99
2022-12-25T02:55:04.562Z,99.99
2022-12-25T02:56:04.566Z,99.99
2022-12-25T02:57:04.690Z,99.99
2022-12-25T02:58:04.666Z,99.99
2022-12-25T02:59:04.582Z,99.99
2022-12-25T03:00:04.559Z,99.99
2022-12-25T03:01:04.637Z,99.99
2022-12-25T03:02:04.676Z,99.99
2022-12-25T03:03:04.577Z,99.99
2022-12-25T03:04:04.539Z,99.99
2022-12-25T03:05:04.529Z,99.99
2022-12-25T03:06:04.555Z,99.99
2022-12-25T03:07:04.539Z,99.99
2022-12-25T03:08:04.610Z,99.99
2022-12-25T03:09:04.524Z,99.99
2022-12-25T03:10:04.517Z,99.99
2022-12-25T03:11:04.524Z,99.99
2022-12-25T03:12:04.485Z,99.99
2022-12-25T03:13:04.502Z,99.99
2022-12-25T03:14:04.475Z,99.99
2022-12-25T03:15:04.478Z,99.99
2022-12-25T03:16:04.502Z,99.99
2022-12-25T03:17:04.510Z,99.99
2022-12-25T03:18:04.473Z,99.99
2022-12-25T03:19:04.505Z,99.99
2022-12-25T03:20:04.471Z,99.99
2022-12-25T03:21:04.473Z,99.99
2022-12-25T03:22:04.451Z,99.99
2022-12-25T03:23:04.431Z,99.99
2022-12-25T03:24:04.484Z,99.99
2022-12-25T03:25:04.561Z,99.99
2022-12-25T03:26:04.440Z,99.99
2022-12-25T03:27:04.404Z,99.99
2022-12-25T03:28:04.430Z,99.99
2022-12-25T03:29:04.457Z,99.99
2022-12-25T03:30:04.427Z,99.99
2022-12-25T03:31:04.580Z,99.99
2022-12-25T03:32:04.434Z,99.99
2022-12-25T03:33:23.191Z,99.99
2022-12-25T03:34:06.461Z,99.99
2022-12-25T03:35:04.397Z,99.99
2022-12-25T03:36:04.373Z,99.99
2022-12-25T03:37:04.395Z,99.99
2022-12-25T03:38:04.410Z,99.99
2022-12-25T03:39:04.393Z,99.71
2022-12-25T03:40:04.385Z,99.60
2022-12-25T03:41:04.390Z,98.99
2022-12-25T03:42:04.372Z,99.14
2022-12-25T03:43:04.398Z,99.09
2022-12-25T03:44:04.393Z,98.47
2022-12-25T03:45:04.356Z,98.62
2022-12-25T03:46:04.375Z,99.14
2022-12-25T03:47:04.354Z,99.04
2022-12-25T03:48:04.375Z,98.83
2022-12-25T03:49:04.342Z,98.83
2022-12-25T03:50:04.336Z,98.83
2022-12-25T03:51:04.305Z,99.14
2022-12-25T03:52:04.344Z,99.04
2022-12-25T03:53:04.338Z,99.14
2022-12-25T03:54:04.309Z,99.04
2022-12-25T03:55:04.315Z,99.14
2022-12-25T03:56:04.304Z,98.99
2022-12-25T03:57:04.287Z,99.04
2022-12-25T03:58:04.331Z,99.14
2022-12-25T03:59:04.352Z,98.62
2022-12-25T04:00:04.302Z,98.58
2022-12-25T04:01:04.358Z,98.47
2022-12-25T04:02:04.413Z,99.19
2022-12-25T04:03:04.337Z,98.99
2022-12-25T04:04:05.272Z,98.37
2022-12-25T04:05:04.277Z,98.99
2022-12-25T04:06:04.314Z,98.99
2022-12-25T04:07:04.259Z,98.58
2022-12-25T04:08:04.262Z,99.09
2022-12-25T04:09:04.258Z,98.99
2022-12-25T04:10:04.217Z,98.16
2022-12-25T04:11:04.383Z,98.99
2022-12-25T04:12:04.237Z,98.94
2022-12-25T04:13:04.227Z,98.79
2022-12-25T04:14:04.267Z,98.74
2022-12-25T04:15:04.248Z,98.79
2022-12-25T04:16:04.301Z,98.79
2022-12-25T04:17:04.180Z,98.94
2022-12-25T04:18:04.204Z,98.33
2022-12-25T04:19:04.220Z,97.71
2022-12-25T04:20:04.219Z,98.16
2022-12-25T04:21:04.217Z,97.80
2022-12-25T04:22:04.169Z,98.72
2022-12-25T04:23:04.226Z,98.62
2022-12-25T04:24:04.168Z,98.79
2022-12-25T04:25:04.247Z,98.58
2022-12-25T04:26:04.189Z,98.06
2022-12-25T04:27:04.167Z,98.94
2022-12-25T04:28:05.162Z,98.88
2022-12-25T04:29:04.143Z,98.47
2022-12-25T04:30:04.191Z,98.99
2022-12-25T04:31:04.177Z,98.79
2022-12-25T04:32:04.170Z,99.19
2022-12-25T04:33:04.192Z,98.58
2022-12-25T04:34:04.142Z,98.83
2022-12-25T04:35:04.159Z,98.62
2022-12-25T04:36:04.142Z,98.93
2022-12-25T04:37:04.110Z,98.83
2022-12-25T04:38:04.126Z,98.88
2022-12-25T04:39:04.151Z,98.99
2022-12-25T04:40:04.109Z,99.09
2022-12-25T04:41:04.153Z,99.19
2022-12-25T04:42:04.100Z,98.99
2022-12-25T04:43:04.150Z,98.88
2022-12-25T04:44:04.100Z,99.09
2022-12-25T04:45:04.105Z,98.99
2022-12-25T04:46:04.106Z,98.88
2022-12-25T04:47:10.745Z,99.05
2022-12-25T04:48:06.060Z,98.99
2022-12-25T04:49:04.066Z,98.88
2022-12-25T04:50:04.075Z,98.68
2022-12-25T04:51:04.049Z,99.08
2022-12-25T04:52:04.065Z,99.99
2022-12-25T04:53:04.054Z,99.18
2022-12-25T04:54:04.039Z,99.80
2022-12-25T04:55:04.040Z,99.96
2022-12-25T04:56:04.045Z,99.86
2022-12-25T04:57:04.042Z,99.99
2022-12-25T04:58:04.026Z,99.96
2022-12-25T04:59:04.023Z,99.99
2022-12-25T05:00:04.025Z,99.91
2022-12-25T05:01:04.116Z,99.71
2022-12-25T05:02:04.099Z,99.51
2022-12-25T05:03:04.081Z,99.44
2022-12-25T05:04:04.003Z,99.24
2022-12-25T05:05:04.019Z,99.55
2022-12-25T05:06:04.048Z,99.34
2022-12-25T05:07:04.050Z,99.76
2022-12-25T05:08:04.000Z,99.90
2022-12-25T05:09:03.981Z,99.99
2022-12-25T05:10:04.003Z,99.99
2022-12-25T05:11:03.983Z,99.99
2022-12-25T05:12:04.006Z,99.99
2022-12-25T05:13:03.953Z,99.99
2022-12-25T05:14:03.963Z,99.99
2022-12-25T05:15:03.953Z,99.99
2022-12-25T05:16:04.033Z,99.99
2022-12-25T05:17:03.965Z,99.99
2022-12-25T05:18:03.978Z,99.99
2022-12-25T05:19:03.951Z,99.91
2022-12-25T05:20:03.971Z,99.76
2022-12-25T05:21:03.962Z,99.44
2022-12-25T05:22:03.918Z,99.04
2022-12-25T05:23:03.933Z,99.24
2022-12-25T05:24:03.902Z,99.55
2022-12-25T05:25:03.952Z,99.76
2022-12-25T05:26:03.886Z,99.40
2022-12-25T05:27:03.910Z,99.51
2022-12-25T05:28:03.886Z,99.19
2022-12-25T05:29:03.915Z,98.88
2022-12-25T05:30:03.899Z,99.19
2022-12-25T05:31:03.980Z,99.09
2022-12-25T05:32:04.884Z,98.68
2022-12-25T05:33:03.949Z,99.99
2022-12-25T05:34:03.856Z,98.79
2022-12-25T05:35:03.911Z,98.58
2022-12-25T05:36:03.854Z,98.43
2022-12-25T05:37:03.868Z,98.74
2022-12-25T05:38:03.843Z,98.94
2022-12-25T05:39:03.835Z,98.12
2022-12-25T05:40:03.809Z,98.22
2022-12-25T05:41:03.829Z,98.63
2022-12-25T05:42:03.834Z,98.74
2022-12-25T05:43:03.823Z,98.53
2022-12-25T05:44:03.860Z,98.53
2022-12-25T05:45:03.818Z,98.74
2022-12-25T05:46:03.830Z,98.63
2022-12-25T05:47:03.883Z,98.33
2022-12-25T05:48:03.833Z,97.75
2022-12-25T05:49:03.815Z,98.06
2022-12-25T05:50:03.781Z,99.14
2022-12-25T05:51:03.786Z,99.18
2022-12-25T05:52:03.806Z,99.29
2022-12-25T05:53:08.095Z,99.80
2022-12-25T05:54:04.795Z,99.90
2022-12-25T05:55:03.746Z,99.80
2022-12-25T05:56:03.783Z,99.99
2022-12-25T05:57:03.763Z,99.99
2022-12-25T05:58:03.784Z,99.99
2022-12-25T05:59:03.772Z,99.99
2022-12-25T06:00:03.730Z,99.76
2022-12-25T06:01:03.738Z,99.99
2022-12-25T06:02:03.949Z,99.99
2022-12-25T06:03:03.851Z,99.99
2022-12-25T06:04:10.180Z,99.99
2022-12-25T06:05:05.778Z,99.99
2022-12-25T06:06:03.701Z,99.96
2022-12-25T06:07:03.729Z,99.99
2022-12-25T06:08:03.721Z,99.99
2022-12-25T06:09:03.729Z,99.99
2022-12-25T06:10:03.739Z,99.99
2022-12-25T06:11:03.694Z,99.91
2022-12-25T06:12:03.694Z,99.99
2022-12-25T06:13:03.688Z,99.99
2022-12-25T06:14:03.672Z,99.60
2022-12-25T06:15:03.680Z,99.09
2022-12-25T06:16:03.686Z,99.91
2022-12-25T06:17:03.735Z,99.71
2022-12-25T06:18:03.645Z,99.51
2022-12-25T06:19:03.656Z,98.94
2022-12-25T06:20:03.686Z,99.51
2022-12-25T06:21:03.658Z,99.99
2022-12-25T06:22:03.628Z,98.88
2022-12-25T06:23:03.625Z,98.99
2022-12-25T06:24:03.683Z,99.04
2022-12-25T06:25:03.646Z,98.77
2022-12-25T06:26:03.651Z,99.60
2022-12-25T06:27:03.699Z,99.99
2022-12-25T06:28:03.672Z,99.18
2022-12-25T06:29:03.616Z,99.60
2022-12-25T06:30:03.636Z,99.99
2022-12-25T06:31:03.732Z,99.99
2022-12-25T06:32:03.680Z,99.90
2022-12-25T06:33:03.575Z,99.99
2022-12-25T06:34:03.573Z,99.99
2022-12-25T06:35:03.593Z,99.99
2022-12-25T06:36:03.621Z,99.99
2022-12-25T06:37:03.569Z,99.99
2022-12-25T06:38:03.573Z,99.99
2022-12-25T06:39:03.584Z,99.99
2022-12-25T06:40:03.541Z,99.99
2022-12-25T06:41:03.565Z,99.99
2022-12-25T06:42:03.549Z,99.99
2022-12-25T06:43:03.586Z,99.99
2022-12-25T06:44:03.548Z,99.91
2022-12-25T06:45:03.535Z,99.99
2022-12-25T06:46:03.597Z,99.99
2022-12-25T06:47:03.551Z,99.97
2022-12-25T06:48:03.537Z,99.97
2022-12-25T06:49:03.608Z,99.35
2022-12-25T06:50:03.514Z,99.77
2022-12-25T06:51:03.549Z,99.66
2022-12-25T06:52:03.487Z,99.56
2022-12-25T06:53:03.525Z,98.84
2022-12-25T06:54:03.483Z,99.25
2022-12-25T06:55:03.507Z,98.84
2022-12-25T06:56:03.484Z,98.84
2022-12-25T06:57:03.500Z,99.46
2022-12-25T06:58:03.481Z,98.79
2022-12-25T06:59:03.543Z,98.58
2022-12-25T07:00:03.502Z,98.68
2022-12-25T07:01:03.462Z,98.99
2022-12-25T07:02:03.587Z,99.04
2022-12-25T07:03:03.522Z,98.83
2022-12-25T07:04:03.462Z,99.44
2022-12-25T07:05:03.441Z,99.76
2022-12-25T07:06:03.434Z,99.65
2022-12-25T07:07:08.746Z,99.76
2022-12-25T07:08:05.407Z,99.96
2022-12-25T07:09:03.403Z,99.99
2022-12-25T07:10:03.440Z,99.99
2022-12-25T07:11:03.423Z,99.99
2022-12-25T07:12:03.435Z,99.99
2022-12-25T07:13:04.408Z,99.65
2022-12-25T07:14:03.393Z,99.71
2022-12-25T07:15:03.404Z,99.86
2022-12-25T07:16:03.409Z,99.86
2022-12-25T07:17:03.432Z,99.76
2022-12-25T07:18:03.408Z,99.55
2022-12-25T07:19:03.377Z,99.65
2022-12-25T07:20:03.385Z,99.76
2022-12-25T07:21:03.356Z,99.65
2022-12-25T07:22:03.381Z,99.34
2022-12-25T07:23:03.342Z,99.81
2022-12-25T07:24:03.382Z,99.99
2022-12-25T07:25:03.378Z,99.91
2022-12-25T07:26:03.336Z,99.60
2022-12-25T07:27:03.375Z,99.71
2022-12-25T07:28:03.321Z,99.60
2022-12-25T07:29:03.317Z,99.40
2022-12-25T07:30:03.343Z,99.56
2022-12-25T07:31:03.311Z,99.66
2022-12-25T07:32:03.385Z,99.56
2022-12-25T07:33:03.302Z,99.56
2022-12-25T07:34:03.324Z,99.15
2022-12-25T07:35:03.341Z,99.15
2022-12-25T07:36:03.311Z,99.25
2022-12-25T07:37:03.314Z,98.94
2022-12-25T07:38:04.283Z,98.47
2022-12-25T07:39:03.429Z,98.62
2022-12-25T07:40:03.520Z,99.24
2022-12-25T07:41:03.308Z,99.44
2022-12-25T07:42:03.271Z,99.55
2022-12-25T07:43:03.280Z,99.86
2022-12-25T07:44:03.268Z,99.80
2022-12-25T07:45:03.255Z,99.99
2022-12-25T07:46:03.263Z,99.99
2022-12-25T07:47:03.246Z,99.99
2022-12-25T07:48:05.764Z,99.99
2022-12-25T07:49:04.229Z,99.99
2022-12-25T07:50:03.251Z,99.99
2022-12-25T07:51:03.220Z,99.99
2022-12-25T07:52:03.256Z,99.99
2022-12-25T07:53:03.242Z,99.99
2022-12-25T07:54:03.201Z,99.99
2022-12-25T07:55:03.218Z,99.99
2022-12-25T07:56:03.232Z,99.99
2022-12-25T07:57:03.263Z,99.99
2022-12-25T07:58:03.206Z,99.99
2022-12-25T07:59:03.204Z,99.99
2022-12-25T08:00:03.168Z,99.99
2022-12-25T08:01:03.247Z,99.99
2022-12-25T08:02:03.460Z,99.99
2022-12-25T08:03:03.316Z,99.99
2022-12-25T08:04:03.300Z,99.99
2022-12-25T08:05:03.150Z,99.99
2022-12-25T08:06:03.150Z,99.99
2022-12-25T08:07:03.141Z,99.99
2022-12-25T08:08:03.131Z,99.99
2022-12-25T08:09:03.184Z,99.99
2022-12-25T08:10:03.139Z,99.99
2022-12-25T08:11:03.129Z,99.99
2022-12-25T08:12:03.121Z,99.99
2022-12-25T08:13:04.026Z,99.99
2022-12-25T08:14:03.138Z,99.99
2022-12-25T08:15:03.120Z,99.99
2022-12-25T08:16:03.153Z,99.99
2022-12-25T08:17:03.203Z,99.99
2022-12-25T08:18:03.146Z,99.99
2022-12-25T08:19:03.089Z,99.99
2022-12-25T08:20:03.127Z,99.99
2022-12-25T08:21:03.074Z,99.99
2022-12-25T08:22:03.070Z,99.99
2022-12-25T08:23:03.079Z,99.99
2022-12-25T08:24:03.174Z,99.99
2022-12-25T08:25:03.063Z,99.99
2022-12-25T08:26:05.412Z,99.99
2022-12-25T08:27:04.097Z,99.99
2022-12-25T08:28:03.057Z,99.99
2022-12-25T08:29:03.070Z,99.99
2022-12-25T08:30:03.112Z,99.99
2022-12-25T08:31:03.095Z,99.99
2022-12-25T08:32:03.080Z,99.99
2022-12-25T08:33:03.021Z,99.99
2022-12-25T08:34:03.066Z,99.99
2022-12-25T08:35:03.003Z,99.99
2022-12-25T08:36:03.058Z,99.99
2022-12-25T08:37:03.033Z,99.99
2022-12-25T08:38:03.014Z,99.99
2022-12-25T08:39:03.596Z,99.99
2022-12-25T08:40:04.024Z,99.99
2022-12-25T08:41:02.989Z,99.99
2022-12-25T08:42:02.978Z,99.99
2022-12-25T08:43:02.980Z,99.99
2022-12-25T08:44:03.033Z,99.99
2022-12-25T08:45:02.989Z,99.99
2022-12-25T08:46:03.000Z,99.99
2022-12-25T08:47:02.992Z,99.99
2022-12-25T08:48:02.984Z,99.99
2022-12-25T08:49:03.949Z,99.99
2022-12-25T08:50:03.006Z,99.99
2022-12-25T08:51:03.002Z,99.99
2022-12-25T08:52:02.973Z,99.99
2022-12-25T08:53:02.979Z,99.99
2022-12-25T08:54:02.940Z,99.99
2022-12-25T08:55:02.962Z,99.99
2022-12-25T08:56:02.921Z,99.99
2022-12-25T08:57:03.299Z,99.99
2022-12-25T08:58:03.905Z,99.99
2022-12-25T08:59:02.906Z,99.99
2022-12-25T09:00:02.906Z,99.99
2022-12-25T09:01:03.008Z,99.99
2022-12-25T09:02:02.964Z,99.99
2022-12-25T09:03:03.078Z,99.99
2022-12-25T09:04:02.878Z,99.99
2022-12-25T09:05:02.856Z,99.99
2022-12-25T09:06:02.881Z,99.99
2022-12-25T09:07:02.893Z,99.99
2022-12-25T09:08:02.893Z,99.99
2022-12-25T09:09:02.884Z,99.99
2022-12-25T09:10:02.856Z,99.99
2022-12-25T09:11:02.845Z,99.99
2022-12-25T09:12:02.901Z,99.99
2022-12-25T09:13:02.884Z,99.99
2022-12-25T09:14:02.857Z,99.99
2022-12-25T09:15:02.831Z,99.99
2022-12-25T09:16:02.865Z,99.99
2022-12-25T09:17:02.835Z,99.99
2022-12-25T09:18:02.826Z,99.99
2022-12-25T09:19:02.840Z,99.99
2022-12-25T09:20:02.806Z,99.99
2022-12-25T09:21:02.811Z,99.99
2022-12-25T09:22:02.806Z,99.99
2022-12-25T09:23:02.979Z,99.99
2022-12-25T09:24:02.853Z,99.99
2022-12-25T09:25:02.822Z,99.99
2022-12-25T09:26:02.782Z,99.99
2022-12-25T09:27:02.783Z,99.99
2022-12-25T09:28:02.770Z,99.99
2022-12-25T09:29:02.826Z,99.99
2022-12-25T09:30:02.787Z,99.99
2022-12-25T09:31:02.859Z,99.99
2022-12-25T09:32:02.743Z,99.99
2022-12-25T09:33:02.759Z,99.99
2022-12-25T09:34:02.737Z,99.99
2022-12-25T09:35:02.781Z,99.99
2022-12-25T09:36:02.735Z,99.99
2022-12-25T09:37:02.754Z,99.99
2022-12-25T09:38:02.813Z,99.99
2022-12-25T09:39:02.723Z,99.99
2022-12-25T09:40:02.703Z,99.99
2022-12-25T09:41:02.714Z,99.99
2022-12-25T09:42:02.724Z,99.99
2022-12-25T09:43:02.690Z,99.99
2022-12-25T09:44:02.754Z,99.99
2022-12-25T09:45:02.809Z,99.99
2022-12-25T09:46:02.771Z,99.99
2022-12-25T09:47:02.673Z,99.99
2022-12-25T09:48:02.716Z,99.99
2022-12-25T09:49:02.671Z,99.99
2022-12-25T09:50:02.819Z,99.99
2022-12-25T09:51:02.694Z,99.99
2022-12-25T09:52:02.719Z,99.99
2022-12-25T09:53:02.689Z,99.99
2022-12-25T09:54:02.652Z,99.99
2022-12-25T09:55:02.683Z,99.99
2022-12-25T09:56:02.681Z,99.99
2022-12-25T09:57:02.631Z,99.99
2022-12-25T09:58:02.647Z,99.99
2022-12-25T09:59:02.639Z,99.99
2022-12-25T10:00:02.640Z,99.99
2022-12-25T10:01:02.641Z,99.99
2022-12-25T10:02:02.813Z,99.99
2022-12-25T10:03:02.827Z,99.99
2022-12-25T10:04:02.600Z,99.99
2022-12-25T10:05:02.740Z,99.99
2022-12-25T10:06:02.595Z,99.99
2022-12-25T10:07:02.607Z,99.99
2022-12-25T10:08:02.594Z,99.99
2022-12-25T10:09:02.648Z,99.99
2022-12-25T10:10:02.580Z,99.99
2022-12-25T10:11:02.568Z,99.99
2022-12-25T10:12:02.571Z,99.99
2022-12-25T10:13:02.561Z,99.99
2022-12-25T10:14:02.593Z,99.99
2022-12-25T10:15:02.568Z,99.99
2022-12-25T10:16:02.570Z,99.99
2022-12-25T10:17:02.560Z,99.99
2022-12-25T10:18:02.572Z,99.99
2022-12-25T10:19:02.558Z,99.99
2022-12-25T10:20:02.526Z,99.99
2022-12-25T10:21:04.694Z,99.99
2022-12-25T10:22:02.528Z,99.99
2022-12-25T10:23:02.510Z,99.99
2022-12-25T10:24:02.486Z,99.99
2022-12-25T10:25:02.560Z,99.99
2022-12-25T10:26:02.522Z,99.99
2022-12-25T10:27:02.485Z,99.99
2022-12-25T10:28:02.483Z,99.99
2022-12-25T10:29:02.476Z,99.99
2022-12-25T10:30:02.496Z,99.99
2022-12-25T10:31:02.528Z,99.99
2022-12-25T10:32:02.473Z,99.99
2022-12-25T10:33:02.460Z,99.99
2022-12-25T10:34:02.454Z,99.99
2022-12-25T10:35:02.436Z,99.99
2022-12-25T10:36:02.525Z,99.99
2022-12-25T10:37:02.451Z,99.99
2022-12-25T10:38:02.441Z,99.99
2022-12-25T10:39:02.510Z,99.99
2022-12-25T10:40:02.446Z,99.99
2022-12-25T10:41:02.441Z,99.99
2022-12-25T10:42:02.450Z,99.99
2022-12-25T10:43:02.406Z,99.99
2022-12-25T10:44:03.400Z,99.99
2022-12-25T10:45:02.412Z,99.99
2022-12-25T10:46:02.425Z,99.99
2022-12-25T10:47:02.412Z,99.99
2022-12-25T10:48:07.132Z,99.99
2022-12-25T10:49:04.470Z,99.99
2022-12-25T10:50:02.362Z,99.99
2022-12-25T10:51:03.371Z,99.99
2022-12-25T10:52:02.394Z,99.99
2022-12-25T10:53:02.468Z,99.99
2022-12-25T10:54:02.346Z,99.99
2022-12-25T10:55:02.337Z,99.99
2022-12-25T10:56:02.333Z,99.99
2022-12-25T10:57:02.380Z,99.99
2022-12-25T10:58:02.340Z,99.99
2022-12-25T10:59:02.315Z,99.99
2022-12-25T11:00:02.339Z,99.99
2022-12-25T11:01:02.371Z,99.99
2022-12-25T11:02:02.432Z,99.99
2022-12-25T11:03:02.548Z,99.99
2022-12-25T11:04:02.394Z,99.99
2022-12-25T11:05:02.305Z,99.99
2022-12-25T11:06:02.302Z,99.99
2022-12-25T11:07:02.282Z,99.99
2022-12-25T11:08:02.343Z,99.99
2022-12-25T11:09:02.284Z,99.99
2022-12-25T11:10:05.127Z,99.99
2022-12-25T11:11:03.257Z,99.99
2022-12-25T11:12:02.262Z,99.99
2022-12-25T11:13:02.419Z,99.99
2022-12-25T11:14:02.379Z,99.99
2022-12-25T11:15:02.235Z,99.99
2022-12-25T11:16:02.319Z,99.99
2022-12-25T11:17:02.231Z,99.99
2022-12-25T11:18:02.221Z,99.99
2022-12-25T11:19:02.251Z,99.99
2022-12-25T11:20:02.212Z,99.99
2022-12-25T11:21:02.260Z,99.99
2022-12-25T11:22:02.220Z,99.99
2022-12-25T11:23:02.212Z,99.99
2022-12-25T11:24:02.225Z,99.99
2022-12-25T11:25:02.190Z,99.99
2022-12-25T11:26:02.217Z,99.99
2022-12-25T11:27:02.192Z,99.99
2022-12-25T11:28:02.186Z,99.99
2022-12-25T11:29:02.223Z,99.99
2022-12-25T11:30:02.174Z,99.99
2022-12-25T11:31:02.241Z,99.99
2022-12-25T11:32:02.191Z,99.99
2022-12-25T11:33:02.157Z,99.99
2022-12-25T11:34:02.156Z,99.99
2022-12-25T11:35:02.120Z,99.99
2022-12-25T11:36:02.253Z,99.99
2022-12-25T11:37:02.188Z,99.99
2022-12-25T11:38:02.138Z,99.99
2022-12-25T11:39:02.132Z,99.99
2022-12-25T11:40:02.123Z,99.99
2022-12-25T11:41:02.111Z,99.99
2022-12-25T11:42:02.116Z,99.99
2022-12-25T11:43:07.637Z,99.99
2022-12-25T11:44:04.092Z,99.99
2022-12-25T11:45:02.090Z,99.99
2022-12-25T11:46:02.099Z,99.99
2022-12-25T11:47:02.126Z,99.99
2022-12-25T11:48:02.129Z,99.99
2022-12-25T11:49:02.118Z,99.99
2022-12-25T11:50:02.077Z,99.99
2022-12-25T11:51:02.061Z,99.99
2022-12-25T11:52:02.131Z,99.99
2022-12-25T11:53:02.028Z,99.99
2022-12-25T11:54:02.067Z,99.99
2022-12-25T11:55:02.063Z,99.99
2022-12-25T11:56:02.054Z,99.99
2022-12-25T11:57:02.024Z,99.99
2022-12-25T11:58:02.026Z,99.99
2022-12-25T11:59:02.053Z,99.99
2022-12-25T12:00:02.084Z,99.99
2022-12-25T12:01:02.007Z,99.99
2022-12-25T12:02:02.082Z,99.99
2022-12-25T12:03:02.166Z,99.99
2022-12-25T12:04:02.043Z,99.99
2022-12-25T12:05:03.014Z,99.99
2022-12-25T12:06:01.978Z,99.99
2022-12-25T12:07:01.968Z,99.99
2022-12-25T12:08:01.982Z,99.99
2022-12-25T12:09:01.957Z,99.99
2022-12-25T12:10:01.998Z,99.99
2022-12-25T12:11:01.954Z,99.99
2022-12-25T12:12:01.973Z,99.99
2022-12-25T12:13:01.943Z,99.99
2022-12-25T12:14:01.926Z,99.99
2022-12-25T12:15:01.966Z,99.99
2022-12-25T12:16:01.965Z,99.99
2022-12-25T12:17:01.939Z,99.99
2022-12-25T12:18:01.914Z,99.99
2022-12-25T12:19:01.938Z,99.99
2022-12-25T12:20:01.945Z,99.99
2022-12-25T12:21:01.962Z,99.99
2022-12-25T12:22:01.892Z,99.99
2022-12-25T12:23:01.884Z,99.99
2022-12-25T12:24:01.902Z,99.99
2022-12-25T12:25:02.891Z,99.99
2022-12-25T12:26:01.922Z,99.99
2022-12-25T12:27:01.864Z,99.99
2022-12-25T12:28:05.534Z,99.99
2022-12-25T12:29:02.889Z,99.99
2022-12-25T12:30:01.848Z,99.99
2022-12-25T12:31:01.846Z,99.99
2022-12-25T12:32:01.928Z,99.99
2022-12-25T12:33:01.883Z,99.99
2022-12-25T12:34:01.838Z,99.99
2022-12-25T12:35:01.846Z,99.99
2022-12-25T12:36:01.850Z,99.99
2022-12-25T12:37:01.857Z,99.99
2022-12-25T12:38:01.849Z,99.99
2022-12-25T12:39:01.844Z,99.99
2022-12-25T12:40:01.800Z,99.99
2022-12-25T12:41:01.801Z,99.99
2022-12-25T12:42:01.801Z,99.99
2022-12-25T12:43:01.787Z,99.99
2022-12-25T12:44:01.809Z,99.99
2022-12-25T12:45:01.775Z,99.99
2022-12-25T12:46:01.852Z,99.99
2022-12-25T12:47:01.787Z,99.99
2022-12-25T12:48:01.786Z,99.99
2022-12-25T12:49:01.777Z,99.99
2022-12-25T12:50:01.796Z,99.99
2022-12-25T12:51:01.801Z,99.99
2022-12-25T12:52:01.748Z,99.99